createdAt,value
2019-05-02T00:02:24.124Z,14.63
2019-05-02T00:04:51.068Z,14.38
2019-05-02T00:07:21.806Z,15.70
2019-05-02T00:09:51.363Z,14.60
2019-05-02T00:12:22.018Z,14.50
2019-05-02T00:14:50.951Z,14.38
2019-05-02T00:17:25.679Z,14.25
2019-05-02T00:19:51.687Z,14.15
2019-05-02T00:22:20.426Z,13.85
2019-05-02T00:24:49.080Z,14.05
2019-05-02T00:27:17.861Z,13.05
2019-05-02T00:29:46.574Z,14.25
2019-05-02T00:32:18.365Z,14.20
2019-05-02T00:34:45.795Z,13.60
2019-05-02T00:37:19.051Z,13.68
2019-05-02T00:39:49.209Z,12.80
2019-05-02T00:42:17.603Z,14.13
2019-05-02T00:44:48.374Z,13.35
2019-05-02T00:47:23.244Z,13.60
2019-05-02T00:49:51.968Z,13.58
2019-05-02T00:52:21.934Z,12.33
2019-05-02T00:54:54.950Z,13.58
2019-05-02T00:57:21.809Z,13.95
2019-05-02T00:59:50.462Z,12.80
2019-05-02T01:02:20.871Z,14.25
2019-05-02T01:04:50.580Z,13.70
2019-05-02T01:07:20.328Z,15.35
2019-05-02T01:09:50.098Z,13.75
2019-05-02T01:12:26.246Z,13.43
2019-05-02T01:14:49.591Z,13.90
2019-05-02T01:17:20.060Z,14.87
2019-05-02T01:19:51.387Z,15.00
2019-05-02T01:22:19.228Z,15.05
2019-05-02T01:24:48.473Z,15.48
2019-05-02T01:27:24.528Z,14.18
2019-05-02T01:30:12.037Z,14.23
2019-05-02T01:33:01.407Z,16.65
2019-05-02T01:35:31.521Z,15.20
2019-05-02T01:38:18.126Z,15.23
2019-05-02T01:40:53.270Z,15.43
2019-05-02T01:43:23.992Z,15.38
2019-05-02T01:45:54.230Z,16.10
2019-05-02T01:48:23.181Z,16.67
2019-05-02T01:50:52.611Z,17.42
2019-05-02T01:53:22.112Z,16.20
2019-05-02T01:55:52.086Z,16.87
2019-05-02T01:58:22.920Z,17.85
2019-05-02T02:00:52.154Z,17.00
2019-05-02T02:03:20.912Z,16.02
2019-05-02T02:05:49.995Z,18.32
2019-05-02T02:08:19.534Z,18.45
2019-05-02T02:10:50.779Z,17.25
2019-05-02T02:13:18.934Z,16.42
2019-05-02T02:15:48.114Z,15.93
2019-05-02T02:18:22.185Z,18.25
2019-05-02T02:20:56.091Z,17.77
2019-05-02T02:23:29.076Z,17.02
2019-05-02T02:25:59.347Z,16.45
2019-05-02T02:28:32.100Z,17.20
2019-05-02T02:31:04.787Z,16.50
2019-05-02T02:33:29.059Z,15.93
2019-05-02T02:35:58.987Z,15.48
2019-05-02T02:38:33.557Z,16.15
2019-05-02T02:40:58.349Z,16.93
2019-05-02T02:43:34.371Z,15.48
2019-05-02T02:46:05.355Z,13.95
2019-05-02T02:48:40.447Z,14.75
2019-05-02T02:51:05.433Z,13.32
2019-05-02T02:53:35.664Z,12.78
2019-05-02T02:56:08.987Z,13.65
2019-05-02T02:58:45.194Z,12.20
2019-05-02T03:01:08.169Z,13.75
2019-05-02T03:03:37.810Z,13.45
2019-05-02T03:06:08.198Z,12.30
2019-05-02T03:08:45.135Z,12.63
2019-05-02T03:11:09.242Z,12.65
2019-05-02T03:13:52.678Z,12.10
2019-05-02T03:16:23.770Z,10.95
2019-05-02T03:18:52.533Z,10.43
2019-05-02T03:21:22.573Z,9.88
2019-05-02T03:24:01.809Z,9.85
2019-05-02T03:26:24.188Z,8.70
2019-05-02T03:28:58.560Z,8.33
2019-05-02T03:31:29.737Z,7.75
2019-05-02T03:34:00.177Z,7.62
2019-05-02T03:36:30.097Z,6.28
2019-05-02T03:38:59.415Z,5.75
2019-05-02T03:41:28.559Z,6.17
2019-05-02T03:44:10.572Z,5.22
2019-05-02T03:46:28.136Z,4.97
2019-05-02T03:49:05.781Z,5.00
2019-05-02T03:51:27.550Z,4.30
2019-05-02T03:54:06.328Z,4.00
2019-05-02T03:56:27.751Z,3.77
2019-05-02T03:58:58.210Z,4.60
2019-05-02T04:01:27.499Z,3.47
2019-05-02T04:03:56.259Z,3.70
2019-05-02T04:06:25.082Z,3.20
2019-05-02T04:09:00.064Z,2.85
2019-05-02T04:11:32.822Z,3.58
2019-05-02T04:13:57.598Z,3.72
2019-05-02T04:16:30.889Z,4.00
2019-05-02T04:19:02.017Z,2.90
2019-05-02T04:21:31.203Z,3.25
2019-05-02T04:24:12.789Z,3.50
2019-05-02T04:26:31.818Z,3.08
2019-05-02T04:29:00.623Z,2.52
2019-05-02T04:31:31.923Z,3.12
2019-05-02T04:34:00.335Z,3.45
2019-05-02T04:36:29.116Z,3.00
2019-05-02T04:38:59.562Z,2.83
2019-05-02T04:41:30.724Z,2.55
2019-05-02T04:44:01.520Z,3.27
2019-05-02T04:46:31.169Z,2.90
2019-05-02T04:49:00.316Z,2.62
2019-05-02T04:51:31.862Z,2.65
2019-05-02T04:53:59.458Z,2.75
2019-05-02T04:56:29.320Z,2.87
2019-05-02T04:59:01.439Z,2.40
2019-05-02T05:01:33.158Z,2.30
2019-05-02T05:04:02.980Z,1.82
2019-05-02T05:06:29.358Z,2.27
2019-05-02T05:08:58.583Z,2.40
2019-05-02T05:11:27.516Z,2.05
2019-05-02T05:13:59.325Z,1.82
2019-05-02T05:16:28.616Z,2.20
2019-05-02T05:18:57.811Z,2.17
2019-05-02T05:21:28.597Z,2.37
2019-05-02T05:24:01.312Z,2.27
2019-05-02T05:26:33.777Z,1.92
2019-05-02T05:29:01.911Z,2.60
2019-05-02T05:31:31.552Z,1.95
2019-05-02T05:34:00.740Z,1.80
2019-05-02T05:36:33.760Z,2.47
2019-05-02T05:39:02.956Z,1.85
2019-05-02T05:41:30.505Z,1.95
2019-05-02T05:43:59.149Z,2.27
2019-05-02T05:46:28.225Z,1.52
2019-05-02T05:48:58.325Z,1.70
2019-05-02T05:51:27.829Z,1.80
2019-05-02T05:54:02.819Z,1.42
2019-05-02T05:56:32.618Z,1.80
2019-05-02T05:58:59.333Z,1.67
2019-05-02T06:01:33.932Z,1.98
2019-05-02T06:04:00.168Z,1.70
2019-05-02T06:06:29.096Z,1.80
2019-05-02T06:08:58.294Z,2.27
2019-05-02T06:11:27.005Z,1.70
2019-05-02T06:13:55.715Z,1.60
2019-05-02T06:16:24.823Z,2.15
2019-05-02T06:18:53.536Z,1.30
2019-05-02T06:21:22.255Z,1.62
2019-05-02T06:23:51.492Z,1.60
2019-05-02T06:26:20.580Z,2.02
2019-05-02T06:28:49.302Z,1.90
2019-05-02T06:31:18.401Z,1.30
2019-05-02T06:33:47.121Z,2.10
2019-05-02T06:36:16.026Z,2.75
2019-05-02T06:38:44.782Z,1.37
2019-05-02T06:41:16.126Z,1.82
2019-05-02T06:43:46.551Z,1.67
2019-05-02T06:46:16.802Z,2.02
2019-05-02T06:48:48.282Z,2.02
2019-05-02T06:51:19.609Z,2.02
2019-05-02T06:53:48.971Z,2.30
2019-05-02T06:56:17.835Z,1.80
2019-05-02T06:58:46.549Z,2.02
2019-05-02T07:01:16.264Z,2.67
2019-05-02T07:03:47.530Z,1.75
2019-05-02T07:06:16.485Z,1.92
2019-05-02T07:08:46.153Z,1.72
2019-05-02T07:11:14.992Z,1.67
2019-05-02T07:13:43.849Z,1.87
2019-05-02T07:16:36.888Z,1.10
2019-05-02T07:18:51.399Z,2.20
2019-05-02T07:21:23.479Z,1.30
2019-05-02T07:23:53.626Z,1.77
2019-05-02T07:26:23.506Z,1.32
2019-05-02T07:28:52.352Z,1.40
2019-05-02T07:31:21.553Z,1.25
2019-05-02T07:33:50.580Z,1.35
2019-05-02T07:36:19.190Z,1.50
2019-05-02T07:38:50.121Z,1.12
2019-05-02T07:41:19.164Z,1.20
2019-05-02T07:43:52.171Z,1.77
2019-05-02T07:46:20.993Z,1.40
2019-05-02T07:48:54.662Z,1.27
2019-05-02T07:51:21.296Z,1.40
2019-05-02T07:53:50.042Z,1.10
2019-05-02T07:56:19.508Z,1.12
2019-05-02T07:58:48.393Z,1.22
2019-05-02T08:01:17.423Z,1.20
2019-05-02T08:03:46.249Z,1.35
2019-05-02T08:06:15.882Z,1.60
2019-05-02T08:08:44.910Z,0.72
2019-05-02T08:11:13.934Z,1.40
2019-05-02T08:13:42.685Z,1.40
2019-05-02T08:16:11.985Z,1.30
2019-05-02T08:18:41.102Z,1.12
2019-05-02T08:21:09.775Z,1.07
2019-05-02T08:23:39.951Z,1.20
2019-05-02T08:26:08.654Z,1.05
2019-05-02T08:28:39.255Z,1.10
2019-05-02T08:31:08.398Z,1.10
2019-05-02T08:33:37.036Z,0.80
2019-05-02T08:36:06.134Z,1.12
2019-05-02T08:38:35.288Z,1.02
2019-05-02T08:41:04.439Z,1.47
2019-05-02T08:43:33.542Z,1.40
2019-05-02T08:46:02.338Z,1.40
2019-05-02T08:48:31.076Z,1.40
2019-05-02T08:50:59.783Z,1.20
2019-05-02T08:53:29.010Z,1.00
2019-05-02T08:55:57.906Z,1.30
2019-05-02T08:58:27.217Z,1.30
2019-05-02T09:00:56.397Z,1.20
2019-05-02T09:03:26.201Z,1.02
2019-05-02T09:06:05.501Z,1.22
2019-05-02T09:08:27.264Z,1.42
2019-05-02T09:10:55.975Z,1.40
2019-05-02T09:13:29.079Z,1.32
2019-05-02T09:15:55.422Z,1.10
2019-05-02T09:18:30.038Z,1.10
2019-05-02T09:20:56.500Z,1.50
2019-05-02T09:23:27.554Z,1.20
2019-05-02T09:25:56.310Z,1.77
2019-05-02T09:28:25.554Z,1.00
2019-05-02T09:30:57.491Z,1.07
2019-05-02T09:33:25.479Z,1.52
2019-05-02T09:35:54.204Z,1.55
2019-05-02T09:38:23.454Z,1.10
2019-05-02T09:40:56.067Z,0.93
2019-05-02T09:43:22.965Z,0.98
2019-05-02T09:45:52.180Z,1.47
2019-05-02T09:48:22.864Z,1.02
2019-05-02T09:50:52.815Z,1.15
2019-05-02T09:53:25.528Z,0.95
2019-05-02T09:55:57.257Z,1.25
2019-05-02T09:58:24.061Z,1.45
2019-05-02T10:01:11.882Z,1.37
2019-05-02T10:03:42.338Z,1.72
2019-05-02T10:06:13.881Z,1.47
2019-05-02T10:08:45.486Z,1.40
2019-05-02T10:11:17.054Z,2.02
2019-05-02T10:13:43.649Z,1.42
2019-05-02T10:16:12.586Z,1.30
2019-05-02T10:18:43.120Z,1.50
2019-05-02T10:21:13.556Z,1.35
2019-05-02T10:23:42.767Z,1.70
2019-05-02T10:26:12.947Z,1.60
2019-05-02T10:28:49.564Z,1.72
2019-05-02T10:31:13.464Z,1.60
2019-05-02T10:33:42.143Z,1.30
2019-05-02T10:36:13.698Z,1.98
2019-05-02T10:38:42.752Z,1.52
2019-05-02T10:41:12.107Z,1.70
2019-05-02T10:43:42.335Z,1.37
2019-05-02T10:46:15.935Z,1.45
2019-05-02T10:48:48.997Z,1.70
2019-05-02T10:51:26.332Z,1.70
2019-05-02T10:53:56.545Z,1.60
2019-05-02T10:56:25.532Z,1.77
2019-05-02T10:58:54.457Z,1.40
2019-05-02T11:01:24.983Z,1.30
2019-05-02T11:03:55.716Z,1.98
2019-05-02T11:06:25.321Z,1.42
2019-05-02T11:08:54.340Z,1.62
2019-05-02T11:11:23.750Z,1.82
2019-05-02T11:14:05.631Z,1.00
2019-05-02T11:16:45.288Z,1.37
2019-05-02T11:19:24.785Z,1.00
2019-05-02T11:21:58.746Z,1.42
2019-05-02T11:24:23.911Z,1.30
2019-05-02T11:26:54.206Z,1.10
2019-05-02T11:29:23.180Z,1.40
2019-05-02T11:31:52.786Z,1.20
2019-05-02T11:34:22.270Z,1.47
2019-05-02T11:36:52.713Z,1.30
2019-05-02T11:39:31.549Z,1.22
2019-05-02T11:41:52.810Z,1.77
2019-05-02T11:44:22.618Z,1.22
2019-05-02T11:46:52.570Z,1.15
2019-05-02T11:49:22.774Z,1.30
2019-05-02T11:51:56.932Z,1.32
2019-05-02T11:54:22.832Z,1.80
2019-05-02T11:56:53.631Z,1.57
2019-05-02T11:59:28.238Z,1.35
2019-05-02T12:02:17.537Z,1.15
2019-05-02T12:04:47.442Z,1.30
2019-05-02T12:07:14.138Z,1.10
2019-05-02T12:09:55.465Z,1.45
2019-05-02T12:12:15.711Z,0.98
2019-05-02T12:14:44.789Z,1.27
2019-05-02T12:17:13.938Z,1.00
2019-05-02T12:19:42.728Z,1.30
2019-05-02T12:22:12.852Z,1.25
2019-05-02T12:24:45.307Z,0.80
2019-05-02T12:27:12.303Z,1.00
2019-05-02T12:29:42.387Z,1.10
2019-05-02T12:32:12.178Z,0.90
2019-05-02T12:34:42.073Z,1.52
2019-05-02T12:37:12.621Z,0.90
2019-05-02T12:39:42.520Z,2.02
2019-05-02T12:42:12.693Z,1.90
2019-05-02T12:44:42.596Z,1.30
2019-05-02T12:47:11.932Z,1.00
2019-05-02T12:49:42.448Z,0.47
2019-05-02T12:52:12.913Z,0.75
2019-05-02T12:54:42.073Z,1.00
2019-05-02T12:57:12.508Z,1.02
2019-05-02T12:59:42.477Z,0.78
2019-05-02T13:02:13.348Z,1.40
2019-05-02T13:04:42.301Z,1.10
2019-05-02T13:07:12.755Z,1.20
2019-05-02T13:09:42.100Z,0.80
2019-05-02T13:12:13.438Z,1.10
2019-05-02T13:14:42.429Z,1.30
2019-05-02T13:17:12.053Z,1.12
2019-05-02T13:19:48.871Z,1.12
2019-05-02T13:22:32.374Z,1.07
2019-05-02T13:25:02.520Z,0.98
2019-05-02T13:27:43.015Z,0.93
2019-05-02T13:30:03.359Z,1.15
2019-05-02T13:32:33.971Z,0.80
2019-05-02T13:35:12.835Z,0.75
2019-05-02T13:37:42.408Z,1.30
2019-05-02T13:40:26.580Z,1.42
2019-05-02T13:42:55.293Z,0.82
2019-05-02T13:45:34.800Z,1.30
2019-05-02T13:48:03.658Z,0.80
2019-05-02T13:50:32.377Z,0.82
2019-05-02T13:53:02.675Z,1.17
2019-05-02T13:55:36.233Z,0.80
2019-05-02T13:58:05.257Z,1.15
2019-05-02T14:00:36.082Z,1.40
2019-05-02T14:03:04.793Z,0.60
2019-05-02T14:05:33.800Z,0.85
2019-05-02T14:08:22.475Z,0.88
2019-05-02T14:10:58.800Z,0.70
2019-05-02T14:13:27.604Z,0.70
2019-05-02T14:15:56.661Z,0.72
2019-05-02T14:18:28.878Z,0.90
2019-05-02T14:20:55.911Z,1.00
2019-05-02T14:23:26.599Z,0.95
2019-05-02T14:25:55.328Z,0.45
2019-05-02T14:28:26.829Z,0.60
2019-05-02T14:30:54.874Z,0.82
2019-05-02T14:33:25.191Z,0.70
2019-05-02T14:35:54.160Z,0.60
2019-05-02T14:38:22.878Z,1.10
2019-05-02T14:40:53.166Z,0.98
2019-05-02T14:43:46.129Z,1.00
2019-05-02T14:46:12.553Z,1.70
2019-05-02T14:48:45.065Z,0.70
2019-05-02T14:51:16.717Z,0.90
2019-05-02T14:53:43.131Z,0.80
2019-05-02T14:56:16.696Z,0.70
2019-05-02T14:58:46.731Z,0.90
2019-05-02T15:01:17.140Z,1.32
2019-05-02T15:03:46.928Z,1.32
2019-05-02T15:06:16.169Z,0.85
2019-05-02T15:08:45.065Z,1.00
2019-05-02T15:11:14.373Z,1.00
2019-05-02T15:13:45.296Z,1.72
2019-05-02T15:16:17.543Z,0.90
2019-05-02T15:18:47.598Z,1.07
2019-05-02T15:21:23.103Z,1.00
2019-05-02T15:23:54.377Z,0.98
2019-05-02T15:26:26.408Z,0.72
2019-05-02T15:28:53.111Z,1.25
2019-05-02T15:31:29.179Z,1.15
2019-05-02T15:34:01.496Z,0.85
2019-05-02T15:36:29.513Z,1.50
2019-05-02T15:41:29.698Z,1.30
2019-05-02T15:43:58.470Z,1.30
2019-05-02T15:46:28.358Z,1.15
2019-05-02T15:49:01.749Z,1.02
2019-05-02T15:51:27.798Z,0.93
2019-05-02T15:54:06.044Z,1.00
2019-05-02T15:56:32.469Z,1.32
2019-05-02T15:59:06.207Z,0.82
2019-05-02T16:01:36.573Z,1.05
2019-05-02T16:04:07.658Z,0.93
2019-05-02T16:06:36.461Z,1.27
2019-05-02T16:09:06.876Z,1.25
2019-05-02T16:11:35.711Z,1.27
2019-05-02T16:14:04.522Z,1.10
2019-05-02T16:16:36.688Z,1.80
2019-05-02T16:19:05.445Z,1.52
2019-05-02T16:21:35.730Z,1.45
2019-05-02T16:24:22.507Z,1.12
2019-05-02T16:26:54.186Z,2.20
2019-05-02T16:29:28.097Z,1.75
2019-05-02T16:31:59.781Z,1.82
2019-05-02T16:34:31.711Z,1.27
2019-05-02T16:37:16.604Z,1.57
2019-05-02T16:39:49.383Z,2.33
2019-05-02T16:42:13.164Z,1.70
2019-05-02T16:44:42.927Z,1.77
2019-05-02T16:47:13.942Z,1.50
2019-05-02T16:49:42.862Z,1.65
2019-05-02T16:52:12.749Z,2.47
2019-05-02T16:54:43.833Z,2.40
2019-05-02T16:57:12.658Z,2.25
2019-05-02T16:59:42.611Z,1.82
2019-05-02T17:02:12.181Z,2.00
2019-05-02T17:04:42.900Z,2.00
2019-05-02T17:07:16.618Z,1.70
2019-05-02T17:09:46.821Z,2.53
2019-05-02T17:12:15.624Z,1.70
2019-05-02T17:14:53.549Z,2.05
2019-05-02T17:17:17.083Z,1.82
2019-05-02T17:19:45.813Z,1.77
2019-05-02T17:22:16.765Z,1.82
2019-05-02T17:24:44.937Z,3.12
2019-05-02T17:27:20.582Z,1.60
2019-05-02T17:29:45.775Z,1.67
2019-05-02T17:32:14.502Z,1.90
2019-05-02T17:34:43.212Z,1.80
2019-05-02T17:37:14.061Z,1.60
2019-05-02T17:39:46.046Z,2.12
2019-05-02T17:42:17.077Z,1.60
2019-05-02T17:44:45.509Z,1.62
2019-05-02T17:47:14.460Z,1.45
2019-05-02T17:49:43.276Z,1.87
2019-05-02T17:52:19.122Z,1.40
2019-05-02T17:54:47.116Z,1.40
2019-05-02T17:57:15.834Z,2.10
2019-05-02T17:59:45.211Z,1.45
2019-05-02T18:02:15.926Z,1.65
2019-05-02T18:04:46.542Z,1.55
2019-05-02T18:07:18.139Z,1.52
2019-05-02T18:09:46.458Z,1.30
2019-05-02T18:12:16.328Z,1.60
2019-05-02T18:14:46.321Z,1.60
2019-05-02T18:17:16.441Z,2.20
2019-05-02T18:19:45.226Z,1.55
2019-05-02T18:22:23.492Z,2.08
2019-05-02T18:24:46.515Z,1.50
2019-05-02T18:27:15.372Z,1.50
2019-05-02T18:29:45.683Z,0.93
2019-05-02T18:32:17.460Z,1.10
2019-05-02T18:34:45.008Z,1.67
2019-05-02T18:37:14.145Z,1.60
2019-05-02T18:39:49.875Z,2.05
2019-05-02T18:42:16.555Z,1.50
2019-05-02T18:44:48.220Z,0.98
2019-05-02T18:47:20.087Z,1.67
2019-05-02T18:49:46.528Z,1.92
2019-05-02T18:52:15.610Z,1.35
2019-05-02T18:54:47.396Z,1.22
2019-05-02T18:57:17.168Z,1.05
2019-05-02T18:59:46.591Z,1.40
2019-05-02T19:02:15.673Z,1.30
2019-05-02T19:04:44.533Z,1.35
2019-05-02T19:07:15.916Z,1.20
2019-05-02T19:09:51.204Z,1.27
2019-05-02T19:12:25.733Z,1.25
2019-05-02T19:14:47.488Z,1.32
2019-05-02T19:17:16.283Z,1.07
2019-05-02T19:19:46.831Z,1.10
2019-05-02T19:22:17.030Z,2.12
2019-05-02T19:24:46.383Z,1.87
2019-05-02T19:27:21.003Z,1.75
2019-05-02T19:29:48.407Z,2.05
2019-05-02T19:32:25.481Z,1.57
2019-05-02T19:34:48.589Z,1.37
2019-05-02T19:37:17.738Z,1.12
2019-05-02T19:39:48.867Z,2.20
2019-05-02T19:42:22.541Z,2.22
2019-05-02T19:44:52.836Z,2.15
2019-05-02T19:47:22.019Z,2.20
2019-05-02T19:49:52.293Z,3.05
2019-05-02T19:52:22.151Z,1.77
2019-05-02T19:54:51.902Z,1.40
2019-05-02T19:57:26.176Z,1.40
2019-05-02T19:59:57.137Z,1.45
2019-05-02T20:02:23.619Z,1.10
2019-05-02T20:04:52.329Z,1.05
2019-05-02T20:07:22.549Z,1.40
2019-05-02T20:09:52.416Z,1.82
2019-05-02T20:12:21.984Z,1.57
2019-05-02T20:14:51.452Z,1.65
2019-05-02T20:17:23.900Z,1.57
2019-05-02T20:19:52.948Z,1.50
2019-05-02T20:22:25.339Z,1.20
2019-05-02T20:25:00.253Z,1.10
2019-05-02T20:27:28.264Z,1.60
2019-05-02T20:29:56.641Z,1.72
2019-05-02T20:32:25.352Z,1.17
2019-05-02T20:34:54.144Z,1.40
2019-05-02T20:37:23.654Z,1.30
2019-05-02T20:39:53.805Z,1.75
2019-05-02T20:42:22.480Z,1.55
2019-05-02T20:44:52.777Z,1.55
2019-05-02T20:47:24.052Z,1.75
2019-05-02T20:49:53.168Z,1.40
2019-05-02T20:52:22.799Z,1.75
2019-05-02T20:54:52.426Z,1.50
2019-05-02T20:57:21.468Z,1.72
2019-05-02T20:59:52.588Z,1.37
2019-05-02T21:02:21.650Z,2.05
2019-05-02T21:04:52.160Z,2.55
2019-05-02T21:07:26.685Z,2.25
2019-05-02T21:10:03.073Z,2.40
2019-05-02T21:12:33.617Z,1.80
2019-05-02T21:15:02.471Z,2.02
2019-05-02T21:17:32.742Z,1.80
2019-05-02T21:20:02.298Z,1.72
2019-05-02T21:22:32.745Z,2.17
2019-05-02T21:25:02.894Z,2.08
2019-05-02T21:27:32.385Z,1.60
2019-05-02T21:30:01.418Z,2.05
2019-05-02T21:32:32.048Z,2.10
2019-05-02T21:35:02.745Z,2.10
2019-05-02T21:37:32.007Z,1.82
2019-05-02T21:40:02.666Z,2.40
2019-05-02T21:42:31.935Z,2.27
2019-05-02T21:45:02.432Z,1.82
2019-05-02T21:47:31.932Z,2.15
2019-05-02T21:50:03.045Z,1.70
2019-05-02T21:52:49.677Z,2.45
2019-05-02T21:55:23.526Z,1.95
2019-05-02T21:57:52.450Z,2.52
2019-05-02T22:00:43.021Z,2.40
2019-05-02T22:03:12.595Z,2.15
2019-05-02T22:05:42.335Z,2.10
2019-05-02T22:08:12.140Z,2.52
2019-05-02T22:10:42.646Z,1.87
2019-05-02T22:13:11.896Z,3.12
2019-05-02T22:15:42.101Z,2.72
2019-05-02T22:18:10.799Z,2.20
2019-05-02T22:20:39.442Z,2.30
2019-05-02T22:23:08.313Z,2.35
2019-05-02T22:25:37.507Z,2.52
2019-05-02T22:28:06.141Z,2.02
2019-05-02T22:30:35.192Z,2.77
2019-05-02T22:33:05.363Z,1.82
2019-05-02T22:35:34.086Z,2.22
2019-05-02T22:38:22.408Z,2.10
2019-05-02T22:40:52.684Z,1.75
2019-05-02T22:43:22.130Z,2.00
2019-05-02T22:45:51.620Z,2.25
2019-05-02T22:48:22.375Z,2.33
2019-05-02T22:50:52.251Z,2.30
2019-05-02T22:53:21.635Z,2.85
2019-05-02T22:55:51.773Z,2.55
2019-05-02T22:58:22.229Z,2.55
2019-05-02T23:00:52.277Z,2.85
2019-05-02T23:03:21.531Z,3.20
2019-05-02T23:05:52.703Z,2.83
2019-05-02T23:08:22.032Z,2.52
2019-05-02T23:10:51.941Z,2.50
2019-05-02T23:13:21.987Z,2.80
2019-05-02T23:15:52.175Z,2.45
2019-05-02T23:18:22.799Z,2.52
2019-05-02T23:20:52.586Z,2.40
2019-05-02T23:23:24.177Z,2.25
2019-05-02T23:26:06.606Z,2.58
2019-05-02T23:28:37.299Z,2.12
2019-05-02T23:31:06.947Z,2.50
2019-05-02T23:33:53.579Z,2.62
2019-05-02T23:36:22.542Z,2.60
2019-05-02T23:38:52.204Z,2.77
2019-05-02T23:41:22.101Z,2.52
2019-05-02T23:43:52.439Z,2.62
2019-05-02T23:46:22.389Z,2.20
2019-05-02T23:48:52.654Z,2.52
2019-05-02T23:51:22.613Z,2.37
2019-05-02T23:53:52.862Z,2.67
2019-05-02T23:56:23.022Z,2.45
2019-05-02T23:58:52.085Z,2.80
